Terminal Aerodrome Forecast
Issued by NWS

Home | Current Version | Previous Version | Text Only | Print | Product List | Glossary On
Versions: 1 2 3 4 5 6 7 8 9 10 11 12
000
FTUS45 KVEF 261100
TAFBIH
TAF
KBIH 261127Z 2612/2712 33006KT P6SM SCT250
     FM261900 17012G20KT P6SM BKN250
     FM270300 17009KT P6SM SCT140 BKN250
     FM270900 32006KT P6SM SCT140 BKN250=

USA.gov is the U.S. government's official web portal to all federal, state and local government web resources and services.